Time;durP1;ratioP1;P1;durP2;ratioP2;P2;SDS_P1;SDS_P2;PMS_P1;PMS_P2;Temp;Humidity;BMP_temperature;BMP_pressure;BME280_temperature;BME280_humidity;BME280_pressure;Samples;Min_cycle;Max_cycle;Signal;HPM_P1;HPM_P2
2022/05/08 00:01:54;;;;;;;;;21.00;19.50;;;;;16.61;68.94;102181.56;5076517;28;50001;-71
2022/05/08 00:04:20;;;;;;;;;20.50;19.25;;;;;16.69;68.76;102200.28;5076821;28;49875;-68
2022/05/08 00:06:45;;;;;;;;;21.00;17.25;;;;;16.53;68.84;102180.53;5075578;28;49881;-71
2022/05/08 00:09:10;;;;;;;;;20.25;18.75;;;;;16.63;69.47;102195.75;5076809;27;50020;-70
2022/05/08 00:11:36;;;;;;;;;21.00;20.25;;;;;16.74;68.93;102215.44;5076475;28;49929;-67
2022/05/08 00:14:01;;;;;;;;;18.25;17.25;;;;;16.76;69.09;102218.09;5076796;28;49752;-70
2022/05/08 00:16:26;;;;;;;;;17.50;14.75;;;;;16.69;69.07;102205.59;5076741;27;49691;-71
2022/05/08 00:18:53;;;;;;;;;18.25;17.75;;;;;16.79;68.86;102215.50;5076799;28;49873;-67
2022/05/08 00:21:18;;;;;;;;;22.75;19.00;;;;;16.75;69.11;102213.66;5076516;27;50900;-67
2022/05/08 00:23:44;;;;;;;;;18.25;15.75;;;;;16.70;68.90;102208.28;5075232;28;49767;-67
2022/05/08 00:26:09;;;;;;;;;18.25;16.25;;;;;16.64;69.15;102215.19;5076464;28;49769;-67
2022/05/08 00:28:38;;;;;;;;;15.75;14.50;;;;;16.46;69.12;102189.22;5076859;28;49887;-68
2022/05/08 00:31:07;;;;;;;;;19.25;17.00;;;;;16.57;69.15;102209.75;5076171;28;49749;-68
2022/05/08 00:33:33;;;;;;;;;19.25;16.00;;;;;16.45;69.17;102185.69;5076321;28;49871;-71
2022/05/08 00:35:58;;;;;;;;;15.75;14.00;;;;;16.62;68.96;102216.94;5076355;28;49730;-69
2022/05/08 00:38:24;;;;;;;;;15.75;13.25;;;;;16.59;68.98;102215.97;5076747;28;50070;-72
2022/05/08 00:40:49;;;;;;;;;15.75;14.75;;;;;16.21;69.02;102151.66;5074669;28;51064;-69
2022/05/08 00:43:34;;;;;;;;;19.75;15.00;;;;;16.64;68.72;102237.28;5076098;28;50226;-70
2022/05/08 00:46:01;;;;;;;;;19.50;17.25;;;;;16.49;69.02;102210.47;5076551;27;50029;-70
2022/05/08 00:48:28;;;;;;;;;16.00;15.25;;;;;16.48;69.47;102220.19;5076705;28;49733;-68
2022/05/08 00:50:54;;;;;;;;;20.25;17.25;;;;;16.50;68.92;102229.09;5074653;28;51135;-70
2022/05/08 00:53:19;;;;;;;;;21.25;19.50;;;;;16.48;69.02;102225.47;5076190;28;49784;-67
2022/05/08 00:55:46;;;;;;;;;19.00;17.75;;;;;16.43;69.37;102223.63;5074217;28;50183;-71
2022/05/08 00:58:11;;;;;;;;;18.00;16.75;;;;;16.15;69.88;102183.31;5074957;28;49699;-67
2022/05/08 01:00:37;;;;;;;;;20.00;19.50;;;;;16.25;70.16;102217.09;5072889;28;50914;-67
2022/05/08 01:03:03;;;;;;;;;16.75;16.75;;;;;16.24;70.08;102202.06;5072583;28;49774;-68
2022/05/08 01:05:29;;;;;;;;;19.75;16.50;;;;;16.36;69.88;102227.00;5072827;28;49759;-68
2022/05/08 01:07:55;;;;;;;;;21.25;20.25;;;;;16.17;70.34;102215.13;5073174;28;49831;-70
2022/05/08 01:10:20;;;;;;;;;17.50;17.50;;;;;16.14;70.45;102223.91;5072427;28;50719;-71
2022/05/08 01:12:46;;;;;;;;;21.25;19.75;;;;;15.63;70.43;102136.28;5072412;28;49786;-70
2022/05/08 01:15:17;;;;;;;;;19.00;19.00;;;;;16.01;70.91;102230.69;5072995;28;50002;-71
2022/05/08 01:17:42;;;;;;;;;16.25;15.00;;;;;16.02;70.87;102226.31;5073145;28;50104;-71
2022/05/08 01:20:08;;;;;;;;;17.00;16.00;;;;;16.06;71.07;102228.16;5072433;28;49756;-70
2022/05/08 01:22:33;;;;;;;;;20.00;17.75;;;;;15.96;71.10;102216.47;5072479;28;49688;-68
2022/05/08 01:25:00;;;;;;;;;19.50;19.50;;;;;15.82;71.49;102207.31;5072391;28;49743;-67
2022/05/08 01:27:25;;;;;;;;;22.50;21.75;;;;;15.83;71.54;102216.19;5072634;28;50077;-70
2022/05/08 01:29:50;;;;;;;;;20.75;20.75;;;;;15.63;71.47;102182.19;5072191;28;50135;-72
2022/05/08 01:32:16;;;;;;;;;22.00;22.00;;;;;15.78;71.83;102199.28;5072155;28;50360;-69
2022/05/08 01:34:41;;;;;;;;;20.75;20.75;;;;;15.86;71.67;102211.84;5072456;28;49651;-68
2022/05/08 01:37:06;;;;;;;;;25.50;18.50;;;;;15.84;71.51;102204.72;5072492;28;49704;-69
2022/05/08 01:39:32;;;;;;;;;20.00;16.50;;;;;15.80;71.57;102205.50;5071942;27;50450;-71
2022/05/08 01:41:58;;;;;;;;;20.25;19.50;;;;;15.71;71.81;102204.41;5072243;28;50431;-71
2022/05/08 01:44:24;;;;;;;;;22.75;21.75;;;;;15.58;72.16;102189.09;5070718;28;49854;-68
2022/05/08 01:48:21;;;;;;;;;21.00;19.50;;;;;15.64;72.42;102199.88;5072247;28;49630;-69
2022/05/08 01:49:34;;;;;;;;;24.75;24.00;;;;;15.66;71.86;102200.78;5071768;27;49809;-68
2022/05/08 01:52:00;;;;;;;;;26.50;24.50;;;;;15.72;72.20;102203.56;5072047;28;50008;-69
2022/05/08 01:54:25;;;;;;;;;20.50;20.00;;;;;15.72;72.33;102213.25;5071958;28;49726;-68
2022/05/08 01:56:51;;;;;;;;;27.50;27.00;;;;;15.62;73.00;102212.16;5072178;28;49795;-68
2022/05/08 01:59:16;;;;;;;;;29.25;27.00;;;;;15.45;73.11;102198.50;5071780;28;49672;-67
2022/05/08 02:01:43;;;;;;;;;31.50;29.75;;;;;15.38;73.82;102203.63;5072029;28;49769;-68
2022/05/08 02:04:15;;;;;;;;;27.00;21.25;;;;;15.37;73.95;102209.78;5071774;28;49892;-68
2022/05/08 02:06:44;;;;;;;;;34.25;30.50;;;;;15.42;73.96;102226.63;5071973;28;49925;-70
2022/05/08 02:09:10;;;;;;;;;23.50;21.75;;;;;15.30;74.39;102208.72;5071432;28;51158;-71
2022/05/08 02:11:35;;;;;;;;;31.75;25.75;;;;;15.23;74.23;102198.84;5071721;27;50453;-68
2022/05/08 02:14:02;;;;;;;;;28.25;22.50;;;;;15.29;73.97;102208.69;5070611;28;49937;-69
2022/05/08 02:16:28;;;;;;;;;33.25;30.00;;;;;15.17;74.11;102174.91;5071881;28;50052;-68
2022/05/08 02:18:54;;;;;;;;;28.50;27.75;;;;;14.86;74.33;102137.13;5071561;28;49673;-68
2022/05/08 02:21:20;;;;;;;;;26.25;24.75;;;;;15.18;74.52;102201.38;5071586;28;49849;-68
2022/05/08 02:23:45;;;;;;;;;34.50;32.00;;;;;15.12;74.48;102195.03;5071637;28;49795;-68
2022/05/08 02:26:10;;;;;;;;;27.50;25.25;;;;;15.20;75.25;102217.28;5071414;28;49851;-68
2022/05/08 02:28:35;;;;;;;;;27.50;27.50;;;;;15.07;75.11;102218.75;5071338;28;50958;-68
2022/05/08 02:31:01;;;;;;;;;24.25;22.00;;;;;14.86;75.81;102197.94;5071384;28;49876;-69
2022/05/08 02:33:26;;;;;;;;;36.00;29.50;;;;;14.91;75.90;102207.72;5071519;28;49625;-68
2022/05/08 02:35:51;;;;;;;;;29.75;26.00;;;;;14.17;76.29;102091.19;5071772;28;49632;-67
2022/05/08 02:38:18;;;;;;;;;34.00;29.25;;;;;14.95;76.14;102228.97;5063084;28;51507;-68
2022/05/08 02:40:43;;;;;;;;;33.25;31.00;;;;;14.97;76.14;102243.16;5070922;27;50027;-68
2022/05/08 02:43:08;;;;;;;;;34.75;32.50;;;;;14.79;76.52;102224.16;5071108;27;49943;-68
2022/05/08 02:45:34;;;;;;;;;32.75;29.50;;;;;14.77;76.51;102233.81;5071440;28;49783;-68
2022/05/08 02:47:59;;;;;;;;;35.25;31.50;;;;;14.76;76.85;102247.84;5071066;28;50552;-67
2022/05/08 02:50:25;;;;;;;;;32.50;29.00;;;;;14.70;77.62;102245.06;5071313;28;50041;-67
2022/05/08 02:52:51;;;;;;;;;43.00;36.00;;;;;14.60;77.81;102236.88;5071179;28;49806;-68
2022/05/08 03:00:46;;;;;;;;;43.75;36.50;;;;;14.40;78.29;102235.38;5070903;28;49749;-68
2022/05/08 03:03:12;;;;;;;;;39.00;33.50;;;;;14.53;78.17;102248.13;5070881;28;49770;-68
2022/05/08 03:05:41;;;;;;;;;37.50;35.00;;;;;14.43;78.58;102239.84;5071094;28;49837;-68
2022/05/08 03:08:07;;;;;;;;;42.25;34.00;;;;;14.31;78.82;102233.38;5070868;28;50648;-68
2022/05/08 03:11:25;;;;;;;;;46.50;39.25;;;;;14.35;78.38;102231.69;5070597;27;50271;-67
2022/05/08 03:13:18;;;;;;;;;40.50;35.75;;;;;14.38;78.27;102228.25;5070637;28;49737;-68
2022/05/08 03:15:43;;;;;;;;;39.50;35.25;;;;;14.47;78.05;102234.72;5070913;28;49609;-69
2022/05/08 03:18:09;;;;;;;;;44.00;37.75;;;;;14.47;77.96;102237.34;5068911;28;51381;-68
2022/05/08 03:20:34;;;;;;;;;42.25;37.50;;;;;14.35;78.10;102221.13;5069259;28;49809;-68
2022/05/08 03:22:59;;;;;;;;;49.25;38.50;;;;;14.35;78.52;102221.13;5070591;28;49726;-68
2022/05/08 03:25:25;;;;;;;;;47.50;38.25;;;;;14.48;78.41;102230.34;5070157;28;49814;-68
2022/05/08 03:27:51;;;;;;;;;51.00;38.75;;;;;14.42;77.64;102230.13;5070340;28;51031;-68
2022/05/08 03:30:16;;;;;;;;;42.50;36.50;;;;;14.49;78.05;102227.75;5070549;28;50375;-67
2022/05/08 03:32:42;;;;;;;;;46.75;37.50;;;;;14.45;77.79;102224.97;5070483;27;49866;-68
2022/05/08 03:35:07;;;;;;;;;42.75;37.50;;;;;14.41;77.99;102229.25;5070638;28;50076;-68
2022/05/08 03:37:33;;;;;;;;;46.25;38.25;;;;;14.52;77.56;102246.31;5070258;28;49791;-67
2022/05/08 03:39:59;;;;;;;;;50.00;40.75;;;;;14.46;77.99;102238.22;5070317;27;49681;-69
2022/05/08 03:42:24;;;;;;;;;42.75;37.75;;;;;14.52;77.65;102242.78;5063792;28;49787;-67
2022/05/08 03:44:53;;;;;;;;;50.50;37.50;;;;;14.50;77.33;102229.53;5070825;28;49780;-67
2022/05/08 03:47:19;;;;;;;;;51.25;41.25;;;;;14.63;77.50;102249.25;5070093;28;49721;-71
2022/05/08 03:49:44;;;;;;;;;47.75;41.25;;;;;14.53;77.80;102237.53;5070211;28;49773;-69
2022/05/08 03:52:10;;;;;;;;;49.75;41.75;;;;;14.59;77.71;102250.06;5070297;28;50443;-70
2022/05/08 03:54:35;;;;;;;;;47.75;38.75;;;;;14.57;77.87;102247.38;5070247;27;50151;-68
2022/05/08 03:57:00;;;;;;;;;45.50;38.50;;;;;14.56;77.73;102234.97;5068651;28;51671;-68
2022/05/08 03:59:26;;;;;;;;;45.00;39.50;;;;;14.60;77.92;102251.84;5070326;28;49691;-68
2022/05/08 04:01:54;;;;;;;;;46.50;39.75;;;;;14.59;78.20;102245.66;5070102;28;49904;-68
2022/05/08 04:04:20;;;;;;;;;48.75;38.75;;;;;14.59;77.80;102240.38;5070329;28;49814;-72
2022/05/08 04:06:45;;;;;;;;;47.75;38.00;;;;;14.65;77.79;102242.28;5069949;28;50888;-69
2022/05/08 04:09:11;;;;;;;;;49.25;39.25;;;;;14.57;77.63;102242.09;5069607;28;51985;-68
2022/05/08 04:11:36;;;;;;;;;54.75;43.25;;;;;14.55;78.17;102248.16;5069971;28;50324;-72
2022/05/08 04:14:01;;;;;;;;;55.00;44.00;;;;;14.43;78.17;102238.09;5070180;28;49921;-69
2022/05/08 04:16:26;;;;;;;;;49.75;39.00;;;;;14.31;78.52;102227.19;5069886;27;50818;-70
2022/05/08 04:18:52;;;;;;;;;53.00;42.25;;;;;14.41;78.91;102238.91;5069926;28;49742;-71
2022/05/08 04:21:18;;;;;;;;;54.25;43.75;;;;;14.36;78.57;102244.06;5070013;27;49821;-70
2022/05/08 04:26:30;;;;;;;;;52.25;42.25;;;;;14.35;79.18;102244.91;5069552;28;50200;-69
2022/05/08 04:28:56;;;;;;;;;53.75;43.25;;;;;14.37;78.57;102235.28;5069677;27;49731;-70
2022/05/08 04:31:21;;;;;;;;;56.00;43.25;;;;;14.21;78.63;102235.72;5069604;28;49728;-68
2022/05/08 04:33:46;;;;;;;;;55.50;42.75;;;;;14.41;78.40;102252.13;5069937;28;50283;-68
2022/05/08 04:36:12;;;;;;;;;56.00;45.50;;;;;14.18;78.92;102219.75;5070631;28;49886;-69
2022/05/08 04:38:38;;;;;;;;;58.75;46.50;;;;;14.23;79.61;102240.16;5071623;28;49722;-71
2022/05/08 04:41:03;;;;;;;;;52.50;42.50;;;;;14.32;79.15;102245.72;5073242;28;49714;-71
2022/05/08 04:43:28;;;;;;;;;57.50;45.25;;;;;14.36;79.51;102265.19;5072934;28;49730;-69
2022/05/08 04:45:53;;;;;;;;;54.50;41.25;;;;;14.25;79.34;102248.13;5072981;28;50947;-68
2022/05/08 04:48:19;;;;;;;;;45.75;37.50;;;;;14.39;78.84;102260.03;5073170;28;49694;-68
2022/05/08 04:50:44;;;;;;;;;54.25;43.00;;;;;14.39;78.73;102246.81;5073135;28;49807;-71
2022/05/08 04:53:09;;;;;;;;;55.25;43.00;;;;;14.36;79.11;102259.91;5073299;28;49593;-68
2022/05/08 04:55:35;;;;;;;;;51.50;40.75;;;;;14.51;78.28;102265.69;5071174;28;50673;-69
2022/05/08 04:58:00;;;;;;;;;52.50;44.00;;;;;14.57;78.08;102273.78;5072801;28;49904;-67
2022/05/08 05:00:26;;;;;;;;;53.50;45.25;;;;;14.63;78.31;102273.06;5072957;27;49577;-71
2022/05/08 05:02:52;;;;;;;;;53.25;42.50;;;;;14.59;77.89;102263.25;5072979;28;49842;-67
2022/05/08 05:05:17;;;;;;;;;58.25;47.25;;;;;14.61;77.98;102285.34;5072580;28;51219;-70
2022/05/08 05:07:42;;;;;;;;;53.25;44.25;;;;;14.48;78.15;102270.88;5072796;28;49800;-68
2022/05/08 05:10:12;;;;;;;;;56.00;44.25;;;;;14.54;78.10;102304.50;5074518;27;49723;-68
2022/05/08 05:12:38;;;;;;;;;53.75;44.75;;;;;14.47;78.49;102295.50;5076271;27;49767;-68
2022/05/08 05:15:08;;;;;;;;;52.50;44.50;;;;;14.39;78.08;102280.25;5072503;28;50705;-68
2022/05/08 05:17:33;;;;;;;;;54.50;44.75;;;;;14.51;78.25;102300.03;5072694;28;49893;-69
2022/05/08 05:19:59;;;;;;;;;58.00;44.50;;;;;14.54;78.20;102299.22;5071367;28;49787;-70
2022/05/08 05:22:24;;;;;;;;;47.25;40.00;;;;;14.51;77.77;102309.72;5079910;27;49717;-68
2022/05/08 05:24:50;;;;;;;;;56.50;45.75;;;;;14.46;77.70;102304.28;5072162;28;50809;-67
2022/05/08 05:27:16;;;;;;;;;54.25;43.00;;;;;14.53;78.37;102311.53;5072494;27;49746;-70
2022/05/08 05:29:41;;;;;;;;;56.00;44.00;;;;;14.30;78.20;102265.94;5072512;28;49688;-71
2022/05/08 05:32:07;;;;;;;;;55.00;42.75;;;;;14.47;78.04;102307.81;5075998;27;49969;-67
2022/05/08 05:34:33;;;;;;;;;49.50;40.00;;;;;14.47;77.70;102339.50;5070476;27;51209;-67
2022/05/08 05:36:58;;;;;;;;;52.75;44.00;;;;;14.25;78.86;102307.13;5072374;28;49707;-68
2022/05/08 05:39:24;;;;;;;;;51.25;43.00;;;;;14.13;79.10;102297.97;5072083;28;49989;-69
2022/05/08 05:41:50;;;;;;;;;51.50;41.75;;;;;14.25;78.96;102314.16;5071927;27;49890;-67
2022/05/08 05:44:15;;;;;;;;;55.25;42.25;;;;;14.21;78.76;102309.66;5071976;28;51162;-67
2022/05/08 05:49:27;;;;;;;;;58.50;44.75;;;;;14.32;78.68;102324.97;5072335;28;49877;-71
2022/05/08 05:51:56;;;;;;;;;51.25;42.00;;;;;14.48;78.47;102333.41;5072372;28;49575;-67
2022/05/08 05:54:23;;;;;;;;;56.75;43.50;;;;;14.46;78.75;102319.22;5071734;28;49857;-68
2022/05/08 05:56:49;;;;;;;;;58.25;46.00;;;;;14.43;78.37;102330.56;5071930;28;49945;-67
2022/05/08 05:59:14;;;;;;;;;54.75;44.25;;;;;14.39;78.36;102330.47;5074367;27;49934;-67
2022/05/08 06:01:40;;;;;;;;;50.75;42.00;;;;;14.54;78.18;102336.22;5075145;27;49810;-67
2022/05/08 06:04:05;;;;;;;;;54.50;44.50;;;;;14.62;78.11;102324.13;5072069;28;50505;-66
2022/05/08 06:06:30;;;;;;;;;57.25;47.50;;;;;14.43;78.20;102309.44;5072552;28;50419;-67
2022/05/08 06:08:55;;;;;;;;;50.00;39.50;;;;;14.57;78.15;102331.00;5071614;27;49660;-68
2022/05/08 06:11:21;;;;;;;;;63.50;47.00;;;;;14.63;77.77;102319.72;5071911;28;49767;-71
2022/05/08 06:13:46;;;;;;;;;54.25;43.00;;;;;14.76;77.39;102337.72;5071137;27;52827;-70
2022/05/08 06:16:12;;;;;;;;;51.50;42.75;;;;;14.67;77.55;102330.47;5074902;27;49738;-73
2022/05/08 06:18:37;;;;;;;;;55.25;45.00;;;;;14.73;77.25;102320.03;5075668;27;49759;-78
2022/05/08 06:21:03;;;;;;;;;53.50;43.25;;;;;14.66;76.84;102293.38;5083979;27;50192;-68
2022/05/08 06:23:28;;;;;;;;;49.00;40.50;;;;;14.89;76.86;102335.50;5071423;27;50965;-70
2022/05/08 06:25:54;;;;;;;;;51.00;42.50;;;;;15.08;76.75;102354.53;5072462;27;49882;-68
2022/05/08 06:28:19;;;;;;;;;50.00;42.25;;;;;15.18;76.26;102357.47;5071874;28;50100;-72
2022/05/08 06:30:48;;;;;;;;;51.00;41.75;;;;;15.23;76.06;102346.97;5070290;28;49918;-70
2022/05/08 06:33:14;;;;;;;;;53.50;44.50;;;;;14.99;76.40;102327.81;5071238;28;50010;-71
2022/05/08 06:35:40;;;;;;;;;49.00;40.00;;;;;15.08;76.44;102357.16;5071284;27;49818;-69
2022/05/08 06:38:12;;;;;;;;;50.00;42.50;;;;;14.95;76.02;102341.78;5071378;28;49860;-71
2022/05/08 06:40:38;;;;;;;;;52.50;42.50;;;;;15.09;76.28;102349.28;5071079;27;51153;-66
2022/05/08 06:43:04;;;;;;;;;50.00;41.00;;;;;15.05;76.33;102330.59;5071150;28;51048;-76
2022/05/08 06:45:29;;;;;;;;;49.00;39.25;;;;;15.27;75.56;102351.53;5070943;28;49786;-76
2022/05/08 06:47:54;;;;;;;;;45.50;37.25;;;;;15.23;75.22;102349.63;5071282;27;49669;-68
2022/05/08 06:50:20;;;;;;;;;50.75;41.75;;;;;15.25;75.44;102345.31;5075373;28;49635;-67
2022/05/08 06:52:45;;;;;;;;;46.00;37.75;;;;;14.80;75.40;102266.50;5078946;28;49816;-70
2022/05/08 06:55:11;;;;;;;;;54.00;41.25;;;;;15.31;75.21;102344.53;5074704;27;49597;-69
2022/05/08 06:57:37;;;;;;;;;47.50;41.00;;;;;15.31;75.29;102353.38;5075426;27;49716;-67
2022/05/08 07:02:48;;;;;;;;;46.75;37.50;;;;;15.48;74.97;102364.41;5073672;27;49871;-69
2022/05/08 07:05:13;;;;;;;;;45.25;39.75;;;;;15.50;75.26;102360.06;5070503;27;49831;-66
2022/05/08 07:07:38;;;;;;;;;51.75;41.50;;;;;15.54;74.75;102358.38;5077849;27;49925;-71
2022/05/08 07:10:04;;;;;;;;;42.75;36.00;;;;;15.58;74.38;102354.97;5079476;27;50025;-71
2022/05/08 07:12:30;;;;;;;;;49.25;40.75;;;;;15.61;74.04;102357.72;5073962;27;49831;-69
2022/05/08 07:14:55;;;;;;;;;50.25;40.50;;;;;15.56;74.00;102349.63;5070476;27;49879;-72
2022/05/08 07:17:24;;;;;;;;;49.50;40.25;;;;;15.60;74.00;102363.84;5070971;28;50000;-70
2022/05/08 07:19:50;;;;;;;;;49.25;39.25;;;;;15.48;74.63;102353.84;5069561;28;49638;-73
2022/05/08 07:22:16;;;;;;;;;54.00;42.00;;;;;15.31;74.15;102328.66;5070255;28;50462;-71
2022/05/08 07:24:41;;;;;;;;;50.25;41.75;;;;;15.60;74.34;102375.34;5070226;28;49756;-68
2022/05/08 07:27:10;;;;;;;;;50.75;39.25;;;;;15.51;74.35;102353.00;5070743;28;49680;-68
2022/05/08 07:29:36;;;;;;;;;51.50;42.50;;;;;15.65;74.06;102368.44;5070560;28;49897;-73
2022/05/08 07:32:02;;;;;;;;;51.00;40.75;;;;;15.66;74.46;102369.34;5070116;27;50896;-72
2022/05/08 07:37:11;;;;;;;;;46.75;38.50;;;;;15.77;73.55;102370.50;5070583;28;50060;-68
2022/05/08 07:39:37;;;;;;;;;42.75;37.25;;;;;15.68;73.36;102371.16;5070719;28;49931;-68
2022/05/08 07:42:02;;;;;;;;;53.25;43.25;;;;;15.72;74.19;102388.00;5070129;27;50061;-70
2022/05/08 07:44:28;;;;;;;;;51.25;42.00;;;;;15.81;73.85;102385.59;5070495;28;49898;-70
2022/05/08 07:46:53;;;;;;;;;49.75;41.00;;;;;15.68;74.01;102383.50;5070271;28;49843;-72
2022/05/08 07:49:18;;;;;;;;;50.00;38.75;;;;;15.47;73.65;102336.16;5070750;28;50005;-72
2022/05/08 07:51:44;;;;;;;;;48.00;39.25;;;;;15.77;73.54;102378.44;5070262;28;49925;-73
2022/05/08 07:54:09;;;;;;;;;53.25;41.75;;;;;15.96;73.50;102401.88;5069811;28;50362;-71
2022/05/08 07:56:34;;;;;;;;;51.25;38.75;;;;;15.88;73.74;102389.28;5070529;28;49818;-70
2022/05/08 07:59:00;;;;;;;;;45.00;38.25;;;;;16.02;73.02;102391.44;5070200;27;49856;-68
2022/05/08 08:01:25;;;;;;;;;50.00;37.00;;;;;15.98;72.99;102388.66;5069827;28;50502;-69
2022/05/08 08:03:50;;;;;;;;;53.00;43.25;;;;;16.03;73.04;102395.88;5070005;28;49758;-72
2022/05/08 08:06:16;;;;;;;;;51.00;42.50;;;;;16.11;72.63;102400.44;5070037;28;49826;-70
2022/05/08 08:08:41;;;;;;;;;48.50;41.00;;;;;16.26;72.48;102416.72;5069781;28;49841;-72
2022/05/08 08:11:08;;;;;;;;;51.75;42.75;;;;;16.35;72.43;102411.63;5071890;28;49661;-73
2022/05/08 08:13:35;;;;;;;;;47.75;38.25;;;;;16.42;72.01;102418.88;5073519;28;49783;-72
2022/05/08 08:16:01;;;;;;;;;55.50;43.50;;;;;16.41;71.77;102419.75;5072389;28;49690;-68
2022/05/08 08:18:27;;;;;;;;;48.00;41.50;;;;;16.48;71.36;102420.75;5073725;28;49620;-71
2022/05/08 08:20:53;;;;;;;;;51.50;42.00;;;;;16.37;70.97;102393.09;5073684;27;50215;-69
2022/05/08 08:23:18;;;;;;;;;47.00;37.75;;;;;16.56;70.75;102416.53;5073378;28;49753;-71
2022/05/08 08:25:44;;;;;;;;;52.50;40.75;;;;;16.51;70.89;102412.91;5073260;27;49651;-69
2022/05/08 08:28:10;;;;;;;;;49.00;39.50;;;;;16.56;71.25;102412.13;5073487;27;49565;-72
2022/05/08 08:30:36;;;;;;;;;47.00;38.25;;;;;16.63;70.78;102405.22;5073528;28;51010;-70
2022/05/08 08:33:01;;;;;;;;;43.75;36.00;;;;;16.65;70.94;102389.31;5073199;28;49712;-70
2022/05/08 08:35:27;;;;;;;;;48.25;40.50;;;;;16.63;70.52;102391.94;5073551;28;49707;-71
2022/05/08 08:37:52;;;;;;;;;46.50;37.00;;;;;16.79;69.98;102398.50;5073596;27;49605;-70
2022/05/08 08:40:18;;;;;;;;;53.00;41.00;;;;;16.79;69.93;102391.47;5072744;28;50318;-70
2022/05/08 08:42:44;;;;;;;;;48.25;40.25;;;;;16.92;69.90;102379.34;5072815;27;49842;-71
2022/05/08 08:48:08;;;;;;;;;50.25;40.25;;;;;17.36;68.60;102404.06;5073307;28;49684;-72
2022/05/08 08:50:34;;;;;;;;;57.25;45.50;;;;;17.19;68.49;102380.75;5073026;28;50710;-73
2022/05/08 08:53:05;;;;;;;;;41.50;36.75;;;;;17.41;68.71;102389.13;5072994;28;49688;-69
2022/05/08 08:55:32;;;;;;;;;54.50;42.00;;;;;17.47;67.46;102383.06;5072834;28;49942;-71
2022/05/08 08:57:58;;;;;;;;;51.00;41.50;;;;;17.63;67.51;102405.47;5073516;28;50055;-72
2022/05/08 09:00:23;;;;;;;;;50.00;40.25;;;;;17.60;67.61;102410.72;5072624;28;50872;-70
2022/05/08 09:02:52;;;;;;;;;53.75;43.75;;;;;17.56;67.31;102412.41;5073107;27;50077;-73
2022/05/08 09:05:17;;;;;;;;;53.00;45.25;;;;;17.36;67.20;102389.91;5072748;28;49783;-72
2022/05/08 09:07:48;;;;;;;;;49.50;40.25;;;;;17.55;67.49;102384.06;5073145;28;50317;-69
2022/05/08 09:10:18;;;;;;;;;54.00;43.50;;;;;17.74;66.33;102417.19;5072381;28;50695;-73
2022/05/08 09:12:53;;;;;;;;;51.75;41.75;;;;;17.87;66.35;102408.59;5072555;28;49807;-74
2022/05/08 09:15:24;;;;;;;;;46.25;40.25;;;;;17.91;65.78;102405.09;5072829;28;49734;-72
2022/05/08 09:17:51;;;;;;;;;49.25;39.25;;;;;17.79;65.24;102385.41;5064830;28;49715;-74
2022/05/08 09:20:34;;;;;;;;;52.50;39.25;;;;;18.02;65.16;102392.88;5065696;28;50754;-71
2022/05/08 09:23:13;;;;;;;;;51.00;39.00;;;;;18.06;64.87;102391.19;5067096;28;49695;-69
2022/05/08 09:25:47;;;;;;;;;50.50;41.00;;;;;18.13;64.94;102406.34;5071018;28;49743;-68
2022/05/08 09:28:20;;;;;;;;;51.75;41.25;;;;;18.24;64.84;102411.84;5072716;28;49761;-71
2022/05/08 09:31:05;;;;;;;;;52.00;42.50;;;;;18.14;65.01;102413.44;5072543;27;50872;-68
2022/05/08 09:33:35;;;;;;;;;48.50;40.75;;;;;18.33;64.56;102409.28;5066096;28;49691;-71
2022/05/08 09:36:03;;;;;;;;;50.25;41.00;;;;;18.41;64.19;102412.06;5072457;28;49833;-69
2022/05/08 09:38:52;;;;;;;;;51.00;42.00;;;;;18.57;63.92;102400.78;5072222;28;49862;-68
2022/05/08 09:41:22;;;;;;;;;56.50;43.75;;;;;18.51;63.77;102409.56;5072127;27;50737;-73
2022/05/08 09:43:48;;;;;;;;;43.50;36.50;;;;;18.49;63.92;102407.78;5072144;27;49873;-70
2022/05/08 09:46:15;;;;;;;;;55.25;42.00;;;;;18.56;63.49;102396.34;5072230;27;49660;-68
2022/05/08 09:48:40;;;;;;;;;50.25;41.25;;;;;18.51;63.36;102375.00;5072264;27;49832;-68
2022/05/08 09:51:11;;;;;;;;;53.75;42.75;;;;;18.61;63.08;102381.34;5071875;28;50748;-68
2022/05/08 09:53:39;;;;;;;;;51.25;40.50;;;;;18.91;62.31;102398.59;5071592;28;49767;-68
2022/05/08 09:56:07;;;;;;;;;51.25;41.00;;;;;18.98;61.65;102397.81;5070466;28;49862;-69
2022/05/08 09:58:32;;;;;;;;;50.25;38.75;;;;;19.00;61.42;102372.09;5072141;28;49718;-72
2022/05/08 10:00:58;;;;;;;;;46.00;37.00;;;;;19.14;61.37;102391.81;5071700;28;49673;-72
2022/05/08 10:03:25;;;;;;;;;48.75;41.75;;;;;19.29;61.12;102367.09;5072032;27;49705;-73
2022/05/08 10:05:51;;;;;;;;;55.25;42.50;;;;;19.67;60.09;102388.81;5070639;28;49723;-72
2022/05/08 10:08:20;;;;;;;;;50.75;38.75;;;;;19.72;59.39;102376.44;5071752;28;49883;-71
2022/05/08 10:14:00;;;;;;;;;53.50;42.75;;;;;19.78;59.36;102387.13;5071693;28;49861;-69
2022/05/08 10:16:47;;;;;;;;;54.00;45.00;;;;;19.83;59.07;102392.53;5067049;28;49782;-68
2022/05/08 10:19:24;;;;;;;;;47.75;40.50;;;;;20.00;58.95;102380.22;5070313;28;49943;-69
2022/05/08 10:21:55;;;;;;;;;44.00;39.25;;;;;20.13;57.63;102378.53;5070209;28;52758;-71
2022/05/08 10:24:27;;;;;;;;;51.50;42.50;;;;;20.36;57.61;102384.91;5071300;28;49794;-71
2022/05/08 10:27:26;;;;;;;;;53.00;41.75;;;;;20.51;57.38;102366.34;5064968;28;49726;-69
2022/05/08 10:29:54;;;;;;;;;58.00;45.75;;;;;20.73;56.83;102379.78;5069801;28;50085;-68
2022/05/08 10:32:34;;;;;;;;;50.50;39.75;;;;;20.92;56.14;102368.31;5071184;27;50834;-72
2022/05/08 10:35:07;;;;;;;;;57.75;43.25;;;;;21.03;56.06;102371.00;5070034;27;49882;-69
2022/05/08 10:37:33;;;;;;;;;49.25;37.75;;;;;20.91;55.43;102362.97;5069906;28;49848;-68
2022/05/08 10:39:59;;;;;;;;;52.75;43.00;;;;;20.67;55.08;102329.97;5070041;28;49912;-68
2022/05/08 10:42:24;;;;;;;;;48.25;39.50;;;;;20.94;54.98;102365.63;5070737;28;49735;-69
2022/05/08 10:44:50;;;;;;;;;52.00;42.75;;;;;20.86;55.15;102346.94;5069749;28;49727;-68
2022/05/08 10:47:37;;;;;;;;;46.25;36.25;;;;;21.11;55.68;102361.25;5071179;28;49730;-72
2022/05/08 10:50:05;;;;;;;;;54.50;43.50;;;;;21.24;54.79;102365.75;5071189;27;49719;-69
2022/05/08 10:52:37;;;;;;;;;50.50;42.25;;;;;21.34;54.42;102345.31;5069560;28;51830;-69
2022/05/08 10:55:07;;;;;;;;;36.50;29.75;;;;;21.45;54.00;102354.25;5070754;28;49738;-72
2022/05/08 10:57:37;;;;;;;;;50.75;41.00;;;;;21.36;53.70;102347.09;5071124;27;49920;-69
2022/05/08 11:00:08;;;;;;;;;50.00;42.25;;;;;21.14;54.53;102345.25;5069831;28;50107;-70
2022/05/08 11:02:40;;;;;;;;;49.50;42.00;;;;;21.09;54.78;102357.69;5070645;28;51610;-69
2022/05/08 11:05:10;;;;;;;;;50.50;41.50;;;;;20.95;54.81;102328.28;5070664;28;49781;-68
2022/05/08 11:07:47;;;;;;;;;48.25;40.75;;;;;21.34;55.62;102342.66;5070853;28;49703;-69
2022/05/08 11:10:18;;;;;;;;;51.75;42.75;;;;;21.52;54.35;102331.97;5070799;28;49745;-70
2022/05/08 11:13:02;;;;;;;;;57.50;46.25;;;;;21.73;53.47;102360.50;5070544;28;50688;-71
2022/05/08 11:15:33;;;;;;;;;59.50;48.75;;;;;21.69;53.06;102339.97;5070978;28;49864;-69
2022/05/08 11:18:09;;;;;;;;;47.50;41.25;;;;;21.58;52.65;102313.25;5070934;28;49802;-69
2022/05/08 11:20:36;;;;;;;;;51.75;41.25;;;;;21.93;53.22;102348.00;5070818;28;49724;-68
2022/05/08 11:23:05;;;;;;;;;48.25;40.25;;;;;21.88;52.44;102346.22;5070324;28;50816;-69
2022/05/08 11:25:32;;;;;;;;;50.00;39.50;;;;;21.73;53.09;102349.81;5070410;28;49758;-69
2022/05/08 11:27:59;;;;;;;;;45.00;37.00;;;;;21.61;53.16;102348.00;5070636;28;49717;-69
2022/05/08 11:30:35;;;;;;;;;49.00;40.00;;;;;21.56;53.42;102352.47;5070712;27;49894;-68
2022/05/08 11:36:08;;;;;;;;;52.00;42.50;;;;;21.28;53.85;102335.50;5070475;28;49727;-70